createdAt,value
2017-10-31T00:00:07.415Z,21
2017-10-31T00:01:09.578Z,20.9
2017-10-31T00:02:11.739Z,20.9
2017-10-31T00:03:13.195Z,20.9
2017-10-31T00:04:14.668Z,21
2017-10-31T00:05:15.801Z,21
2017-10-31T00:06:17.958Z,21
2017-10-31T00:07:19.778Z,20.9
2017-10-31T00:08:21.597Z,21
2017-10-31T00:09:23.415Z,20.9
2017-10-31T00:10:25.576Z,20.9
2017-10-31T00:11:27.739Z,20.9
2017-10-31T00:12:29.557Z,20.9
2017-10-31T00:13:31.375Z,20.9
2017-10-31T00:14:32.847Z,21
2017-10-31T00:15:34.662Z,21
2017-10-31T00:16:36.823Z,20.9
2017-10-31T00:17:38.621Z,20.9
2017-10-31T00:18:40.786Z,20.9
2017-10-31T00:19:42.582Z,21
2017-10-31T00:20:44.046Z,20.9
2017-10-31T00:21:46.216Z,21
2017-10-31T00:22:48.007Z,20.9
2017-10-31T00:23:50.167Z,20.9
2017-10-31T00:24:51.620Z,20.9
2017-10-31T00:25:53.415Z,20.9
2017-10-31T00:26:55.235Z,20.9
2017-10-31T00:27:56.685Z,20.9
2017-10-31T00:28:58.508Z,20.9
2017-10-31T00:30:00.669Z,20.9
2017-10-31T00:31:02.466Z,20.9
2017-10-31T00:32:03.923Z,20.9
2017-10-31T00:33:05.030Z,20.9
2017-10-31T00:34:07.183Z,20.9
2017-10-31T00:35:09.000Z,20.9
2017-10-31T00:36:10.816Z,20.9
2017-10-31T00:37:12.975Z,20.9
2017-10-31T00:38:14.790Z,21
2017-10-31T00:39:16.242Z,20.9
2017-10-31T00:40:17.715Z,20.9
2017-10-31T00:41:19.875Z,20.9
2017-10-31T00:42:22.035Z,21
2017-10-31T00:43:23.834Z,20.9
2017-10-31T00:44:25.994Z,20.9
2017-10-31T00:45:27.811Z,20.9
2017-10-31T00:46:29.976Z,21
2017-10-31T00:47:31.790Z,21
2017-10-31T00:48:33.610Z,21
2017-10-31T00:49:35.406Z,20.9
2017-10-31T00:50:36.879Z,20.9
2017-10-31T00:51:39.041Z,21
2017-10-31T00:52:41.204Z,20.9
2017-10-31T00:53:43.022Z,20.9
2017-10-31T00:54:44.839Z,20.9
2017-10-31T00:55:47.002Z,20.9
2017-10-31T00:56:48.458Z,20.9
2017-10-31T00:57:50.276Z,20.9
2017-10-31T00:58:52.439Z,21
2017-10-31T00:59:54.600Z,21
2017-10-31T01:00:55.713Z,20.9
2017-10-31T01:01:57.184Z,20.9
2017-10-31T01:02:59.346Z,21
2017-10-31T01:04:00.797Z,21
2017-10-31T01:05:02.615Z,21
2017-10-31T01:06:04.437Z,21
2017-10-31T01:07:05.911Z,20.9
2017-10-31T01:08:07.721Z,21
2017-10-31T01:09:09.882Z,21
2017-10-31T01:10:11.697Z,20.9
2017-10-31T01:11:13.502Z,20.9
2017-10-31T01:12:14.969Z,21
2017-10-31T01:13:16.424Z,21
2017-10-31T01:14:18.590Z,20.9
2017-10-31T01:15:20.407Z,21
2017-10-31T01:16:22.227Z,21
2017-10-31T01:17:24.387Z,21.1
2017-10-31T01:18:26.203Z,20.9
2017-10-31T01:19:28.002Z,20.9
2017-10-31T01:20:29.452Z,21
2017-10-31T01:21:31.252Z,21
2017-10-31T01:22:32.723Z,20.9
2017-10-31T01:23:34.907Z,21
2017-10-31T01:24:36.703Z,21
2017-10-31T01:25:38.868Z,21
2017-10-31T01:26:40.710Z,20.9
2017-10-31T01:27:42.554Z,20.9
2017-10-31T01:28:44.716Z,20.9
2017-10-31T01:29:46.535Z,21
2017-10-31T01:30:47.989Z,21
2017-10-31T01:31:49.472Z,21
2017-10-31T01:32:51.293Z,20.9
2017-10-31T01:33:52.779Z,20.9
2017-10-31T01:34:54.595Z,21
2017-10-31T01:35:56.759Z,21.1
2017-10-31T01:36:58.922Z,21
2017-10-31T01:38:00.746Z,21
2017-10-31T01:39:02.536Z,20.9
2017-10-31T01:40:04.697Z,20.9
2017-10-31T01:41:06.861Z,21
2017-10-31T01:42:08.311Z,21
2017-10-31T01:43:10.477Z,21
2017-10-31T01:44:11.927Z,20.9
2017-10-31T01:45:14.090Z,20.9
2017-10-31T01:46:15.907Z,20.9
2017-10-31T01:47:17.385Z,21
2017-10-31T01:48:19.545Z,21
2017-10-31T01:49:21.003Z,21
2017-10-31T01:50:22.816Z,21
2017-10-31T01:51:24.981Z,21
2017-10-31T01:52:26.440Z,21
2017-10-31T01:53:27.907Z,21.1
2017-10-31T01:54:29.725Z,21
2017-10-31T01:55:31.521Z,20.9
2017-10-31T01:56:33.344Z,21
2017-10-31T01:57:35.506Z,21
2017-10-31T01:58:37.314Z,21
2017-10-31T01:59:39.147Z,21
2017-10-31T02:00:40.969Z,20.9
2017-10-31T02:01:42.766Z,21
2017-10-31T02:02:44.563Z,21
2017-10-31T02:03:46.384Z,21.1
2017-10-31T02:04:47.853Z,20.9
2017-10-31T02:05:49.328Z,20.9
2017-10-31T02:06:51.167Z,21
2017-10-31T02:07:53.321Z,21
2017-10-31T02:08:55.512Z,20.9
2017-10-31T02:09:56.955Z,21
2017-10-31T02:10:58.796Z,20.9
2017-10-31T02:12:00.272Z,20.9
2017-10-31T02:13:02.089Z,20.9
2017-10-31T02:14:03.907Z,20.9
2017-10-31T02:15:05.359Z,20.9
2017-10-31T02:16:07.521Z,21
2017-10-31T02:17:09.681Z,20.9
2017-10-31T02:18:11.135Z,21
2017-10-31T02:19:12.975Z,21.1
2017-10-31T02:20:14.796Z,20.9
2017-10-31T02:21:16.601Z,21
2017-10-31T02:22:18.043Z,21.1
2017-10-31T02:23:20.207Z,21
2017-10-31T02:24:22.025Z,21
2017-10-31T02:25:23.843Z,21
2017-10-31T02:26:25.297Z,21
2017-10-31T02:27:27.120Z,21
2017-10-31T02:28:29.280Z,21
2017-10-31T02:29:30.756Z,21
2017-10-31T02:30:32.915Z,20.9
2017-10-31T02:31:34.750Z,21
2017-10-31T02:32:36.911Z,21
2017-10-31T02:33:38.386Z,21
2017-10-31T02:34:40.204Z,21
2017-10-31T02:35:42.024Z,21
2017-10-31T02:36:44.186Z,21
2017-10-31T02:37:46.348Z,21
2017-10-31T02:38:48.509Z,21
2017-10-31T02:39:49.988Z,21
2017-10-31T02:40:52.164Z,20.9
2017-10-31T02:41:53.982Z,21.1
2017-10-31T02:42:56.142Z,21
2017-10-31T02:43:57.960Z,21
2017-10-31T02:45:00.122Z,20.9
2017-10-31T02:46:01.941Z,21
2017-10-31T02:47:03.758Z,21
2017-10-31T02:48:05.920Z,21
2017-10-31T02:49:08.094Z,21
2017-10-31T02:50:10.256Z,21
2017-10-31T02:51:11.706Z,21
2017-10-31T02:52:13.525Z,21
2017-10-31T02:53:14.993Z,21
2017-10-31T02:54:16.795Z,21
2017-10-31T02:55:18.272Z,21.1
2017-10-31T02:56:19.747Z,21
2017-10-31T02:57:21.906Z,21.1
2017-10-31T02:58:23.370Z,21
2017-10-31T02:59:25.168Z,21
2017-10-31T03:00:26.976Z,21
2017-10-31T03:01:29.137Z,21
2017-10-31T03:02:30.948Z,21
2017-10-31T03:03:32.392Z,21
2017-10-31T03:04:34.207Z,21.1
2017-10-31T03:05:36.370Z,21
2017-10-31T03:06:37.841Z,21
2017-10-31T03:07:40.005Z,21.1
2017-10-31T03:08:42.168Z,21
2017-10-31T03:09:44.336Z,21
2017-10-31T03:10:46.496Z,21.1
2017-10-31T03:11:47.975Z,21
2017-10-31T03:12:49.793Z,21
2017-10-31T03:13:51.955Z,21
2017-10-31T03:14:53.752Z,21
2017-10-31T03:15:55.927Z,21
2017-10-31T03:16:58.102Z,21
2017-10-31T03:17:59.574Z,21.1
2017-10-31T03:19:01.738Z,21.1
2017-10-31T03:20:03.219Z,21
2017-10-31T03:21:05.376Z,21
2017-10-31T03:22:07.192Z,21
2017-10-31T03:23:09.009Z,21
2017-10-31T03:24:10.842Z,21
2017-10-31T03:25:13.016Z,21
2017-10-31T03:26:15.180Z,21.1
2017-10-31T03:27:16.998Z,21
2017-10-31T03:28:18.816Z,21
2017-10-31T03:29:20.977Z,21.1
2017-10-31T03:30:22.777Z,21
2017-10-31T03:31:24.595Z,21
2017-10-31T03:32:26.412Z,21
2017-10-31T03:33:28.232Z,21
2017-10-31T03:34:30.394Z,21
2017-10-31T03:35:32.555Z,21.1
2017-10-31T03:36:34.371Z,21
2017-10-31T03:37:35.828Z,21.1
2017-10-31T03:38:37.671Z,21
2017-10-31T03:39:39.121Z,21
2017-10-31T03:40:40.573Z,21
2017-10-31T03:41:42.391Z,21
2017-10-31T03:42:43.864Z,21
2017-10-31T03:43:45.317Z,21
2017-10-31T03:44:47.133Z,21
2017-10-31T03:45:49.297Z,21
2017-10-31T03:46:51.114Z,21.1
2017-10-31T03:47:52.933Z,21.1
2017-10-31T03:48:54.406Z,21
2017-10-31T03:49:56.567Z,21.1
2017-10-31T03:50:58.385Z,21
2017-10-31T03:52:00.203Z,21.1
2017-10-31T03:53:02.021Z,21
2017-10-31T03:54:03.845Z,21.1
2017-10-31T03:55:05.670Z,21.1
2017-10-31T03:56:07.503Z,21
2017-10-31T03:57:09.662Z,21
2017-10-31T03:58:11.480Z,21
2017-10-31T03:59:13.643Z,21.1
2017-10-31T04:00:15.461Z,21
2017-10-31T04:01:17.279Z,21
2017-10-31T04:02:19.098Z,21
2017-10-31T04:03:21.266Z,21.1
2017-10-31T04:04:23.427Z,21.1
2017-10-31T04:05:25.590Z,21.1
2017-10-31T04:06:27.408Z,21.1
2017-10-31T04:07:28.880Z,21.1
2017-10-31T04:08:30.707Z,21.1
2017-10-31T04:09:32.870Z,21.1
2017-10-31T04:10:34.324Z,21.1
2017-10-31T04:11:35.776Z,21.1
2017-10-31T04:12:37.593Z,21.1
2017-10-31T04:13:39.754Z,21.1
2017-10-31T04:14:41.549Z,21.1
2017-10-31T04:15:43.005Z,21.1
2017-10-31T04:16:45.164Z,21
2017-10-31T04:17:46.644Z,21.1
2017-10-31T04:18:48.454Z,21.1
2017-10-31T04:19:50.616Z,21.1
2017-10-31T04:20:52.782Z,21.1
2017-10-31T04:21:54.942Z,21
2017-10-31T04:22:57.104Z,21
2017-10-31T04:23:58.557Z,21.1
2017-10-31T04:25:00.376Z,21.1
2017-10-31T04:26:02.196Z,21
2017-10-31T04:27:03.325Z,21.1
2017-10-31T04:28:05.143Z,21
2017-10-31T04:29:06.274Z,21.1
2017-10-31T04:30:08.434Z,21.1
2017-10-31T04:31:09.909Z,21.1
2017-10-31T04:32:11.358Z,21.1
2017-10-31T04:33:13.521Z,21.1
2017-10-31T04:34:15.340Z,21.1
2017-10-31T04:35:17.141Z,21.1
2017-10-31T04:36:18.936Z,21
2017-10-31T04:37:21.100Z,21.1
2017-10-31T04:38:23.260Z,21.1
2017-10-31T04:39:24.735Z,21.1
2017-10-31T04:40:26.216Z,21.1
2017-10-31T04:41:28.035Z,21.1
2017-10-31T04:42:29.851Z,21.1
2017-10-31T04:43:31.676Z,21.1
2017-10-31T04:44:33.829Z,21.1
2017-10-31T04:45:35.990Z,21
2017-10-31T04:46:37.446Z,21.1
2017-10-31T04:47:39.266Z,21.1
2017-10-31T04:48:41.086Z,21.1
2017-10-31T04:49:43.248Z,21.1
2017-10-31T04:50:45.407Z,21.1
2017-10-31T04:51:47.568Z,21.1
2017-10-31T04:52:48.681Z,21
2017-10-31T04:53:50.130Z,21.1
2017-10-31T04:54:51.969Z,21.2
2017-10-31T04:55:53.425Z,21.1
2017-10-31T04:56:55.589Z,21.1
2017-10-31T04:57:57.424Z,21
2017-10-31T04:58:59.589Z,21.1
2017-10-31T05:00:01.760Z,21.1
2017-10-31T05:01:03.922Z,21
2017-10-31T05:02:05.740Z,21.1
2017-10-31T05:03:07.905Z,21.1
2017-10-31T05:04:09.357Z,21.1
2017-10-31T05:05:11.520Z,21.1
2017-10-31T05:06:13.338Z,21.1
2017-10-31T05:07:15.504Z,21.1
2017-10-31T05:08:17.320Z,21.1
2017-10-31T05:09:18.430Z,21.1
2017-10-31T05:10:20.593Z,21
2017-10-31T05:11:22.408Z,21.1
2017-10-31T05:12:24.569Z,21.1
2017-10-31T05:13:26.385Z,21.1
2017-10-31T05:14:28.182Z,21
2017-10-31T05:15:30.000Z,21.1
2017-10-31T05:16:31.818Z,21.1
2017-10-31T05:17:33.983Z,21.1
2017-10-31T05:18:35.096Z,21.1
2017-10-31T05:19:37.252Z,21.1
2017-10-31T05:20:39.070Z,21.1
2017-10-31T05:21:40.866Z,21.1
2017-10-31T05:22:42.693Z,21.1
2017-10-31T05:23:44.164Z,21
2017-10-31T05:24:45.287Z,21.1
2017-10-31T05:25:46.037Z,21.1
2017-10-31T05:26:47.854Z,21.1
2017-10-31T05:27:49.670Z,21
2017-10-31T05:28:51.120Z,21.1
2017-10-31T05:29:52.229Z,21.1
2017-10-31T05:30:54.047Z,21.1
2017-10-31T05:31:56.210Z,21.1
2017-10-31T05:32:57.661Z,21.1
2017-10-31T05:33:59.825Z,21
2017-10-31T05:35:01.638Z,21.2
2017-10-31T05:36:03.454Z,21.1
2017-10-31T05:37:05.250Z,21.1
2017-10-31T05:38:07.071Z,21.1
2017-10-31T05:39:09.230Z,21.1
2017-10-31T05:40:11.029Z,21.1
2017-10-31T05:41:12.853Z,21.1
2017-10-31T05:42:15.011Z,21.1
2017-10-31T05:43:16.461Z,21.1
2017-10-31T05:44:17.914Z,21.1
2017-10-31T05:45:19.709Z,21.1
2017-10-31T05:46:21.527Z,21.1
2017-10-31T05:47:23.346Z,21.1
2017-10-31T05:48:25.164Z,21.1
2017-10-31T05:49:26.961Z,21.1
2017-10-31T05:50:28.768Z,21.1
2017-10-31T05:51:30.221Z,21.1
2017-10-31T05:52:32.019Z,21.1
2017-10-31T05:53:33.868Z,21.1
2017-10-31T05:54:35.684Z,21.1
2017-10-31T05:55:37.846Z,21.1
2017-10-31T05:56:40.009Z,21.1
2017-10-31T05:57:41.807Z,21.1
2017-10-31T05:58:43.285Z,21.1
2017-10-31T05:59:45.452Z,21
2017-10-31T06:00:47.273Z,21.1
2017-10-31T06:01:48.394Z,21.1
2017-10-31T06:02:50.546Z,21.1
2017-10-31T06:03:52.362Z,21.1
2017-10-31T06:04:54.181Z,21.1
2017-10-31T06:05:56.009Z,21.1
2017-10-31T06:06:57.820Z,21.1
2017-10-31T06:07:59.981Z,21.1
2017-10-31T06:09:01.456Z,21.1
2017-10-31T06:10:02.915Z,21.1
2017-10-31T06:11:04.369Z,21.1
2017-10-31T06:12:06.189Z,21
2017-10-31T06:13:07.990Z,21.1
2017-10-31T06:14:09.099Z,21.1
2017-10-31T06:15:10.915Z,21.1
2017-10-31T06:16:12.398Z,21.1
2017-10-31T06:17:14.573Z,21.1
2017-10-31T06:18:16.740Z,21.1
2017-10-31T06:19:18.192Z,21.1
2017-10-31T06:20:20.356Z,21.1
2017-10-31T06:21:22.519Z,21.1
2017-10-31T06:22:23.972Z,21.1
2017-10-31T06:23:26.143Z,21.1
2017-10-31T06:24:27.957Z,21.1
2017-10-31T06:25:29.413Z,21.1
2017-10-31T06:26:30.891Z,21.2
2017-10-31T06:27:32.707Z,21.1
2017-10-31T06:28:34.527Z,21.1
2017-10-31T06:29:36.003Z,21.1
2017-10-31T06:30:37.119Z,21.2
2017-10-31T06:31:39.290Z,21.1
2017-10-31T06:32:40.740Z,21.2
2017-10-31T06:33:42.558Z,21.2
2017-10-31T06:34:44.355Z,21.1
2017-10-31T06:35:46.517Z,21.2
2017-10-31T06:36:47.629Z,21.1
2017-10-31T06:37:49.805Z,21.1
2017-10-31T06:38:51.623Z,21.1
2017-10-31T06:39:53.080Z,21.1
2017-10-31T06:40:54.533Z,21.2
2017-10-31T06:41:55.992Z,21.2
2017-10-31T06:42:57.819Z,21.2
2017-10-31T06:43:59.637Z,21.1
2017-10-31T06:45:01.092Z,21
2017-10-31T06:46:02.225Z,21.2
2017-10-31T06:47:03.673Z,21.1
2017-10-31T06:48:05.129Z,21.2
2017-10-31T06:49:07.292Z,21.1
2017-10-31T06:50:09.452Z,21.2
2017-10-31T06:51:10.582Z,21.1
2017-10-31T06:52:12.056Z,21.2
2017-10-31T06:53:13.884Z,21.2
2017-10-31T06:54:16.055Z,21
2017-10-31T06:55:17.867Z,21.1
2017-10-31T06:56:20.032Z,21.2
2017-10-31T06:57:21.853Z,21
2017-10-31T06:58:23.677Z,21.2
2017-10-31T06:59:25.492Z,21.1
2017-10-31T07:00:26.624Z,21.1
2017-10-31T07:01:28.790Z,21.1
2017-10-31T07:02:30.954Z,21.1
2017-10-31T07:03:33.118Z,21.1
2017-10-31T07:04:34.919Z,21.1
2017-10-31T07:05:36.388Z,21.2
2017-10-31T07:06:38.550Z,21.1
2017-10-31T07:07:40.378Z,21.1
2017-10-31T07:08:42.537Z,21.1
2017-10-31T07:09:44.698Z,21.1
2017-10-31T07:10:46.518Z,21.1
2017-10-31T07:11:47.992Z,21
2017-10-31T07:12:49.815Z,21.1
2017-10-31T07:13:51.293Z,21.1
2017-10-31T07:14:53.123Z,21
2017-10-31T07:15:54.938Z,21.2
2017-10-31T07:16:56.397Z,21.1
2017-10-31T07:17:57.507Z,21.1
2017-10-31T07:18:59.672Z,21.1
2017-10-31T07:20:01.130Z,21.2
2017-10-31T07:21:03.295Z,21.1
2017-10-31T07:22:05.456Z,21.1
2017-10-31T07:23:07.621Z,21.2
2017-10-31T07:24:09.437Z,21.1
2017-10-31T07:25:11.259Z,21.2
2017-10-31T07:26:12.736Z,21.2
2017-10-31T07:27:13.842Z,21.2
2017-10-31T07:28:15.663Z,21.1
2017-10-31T07:29:17.491Z,21.2
2017-10-31T07:30:18.942Z,21.1
2017-10-31T07:31:20.750Z,21.2
2017-10-31T07:32:22.229Z,21.2
2017-10-31T07:33:23.359Z,21.2
2017-10-31T07:34:25.518Z,21.2
2017-10-31T07:35:27.335Z,21.2
2017-10-31T07:36:29.504Z,21.2
2017-10-31T07:37:30.982Z,21.2
2017-10-31T07:38:32.796Z,21.2
2017-10-31T07:39:34.958Z,21.2
2017-10-31T07:40:36.777Z,21.2
2017-10-31T07:41:38.592Z,21.3
2017-10-31T07:42:40.067Z,21.2
2017-10-31T07:43:42.231Z,21.3
2017-10-31T07:44:44.394Z,21.2
2017-10-31T07:45:46.557Z,21.3
2017-10-31T07:46:48.015Z,21.2
2017-10-31T07:47:49.837Z,21.2
2017-10-31T07:48:51.653Z,21.3
2017-10-31T07:49:53.475Z,21.2
2017-10-31T07:50:54.950Z,21.3
2017-10-31T07:51:56.743Z,21.3
2017-10-31T07:52:57.874Z,21.3
2017-10-31T07:54:00.084Z,21.2
2017-10-31T07:55:01.900Z,21.3
2017-10-31T07:56:03.374Z,21.3
2017-10-31T07:57:05.201Z,21.3
2017-10-31T07:58:07.365Z,21.3
2017-10-31T07:59:09.527Z,21.3
2017-10-31T08:00:11.326Z,21.3
2017-10-31T08:01:13.129Z,21.3
2017-10-31T08:02:15.292Z,21.3
2017-10-31T08:03:17.117Z,21.2
2017-10-31T08:04:18.571Z,21.3
2017-10-31T08:05:20.400Z,21.2
2017-10-31T08:06:22.215Z,21.3
2017-10-31T08:07:24.380Z,21.3
2017-10-31T08:08:26.540Z,21.3
2017-10-31T08:09:28.709Z,21.3
2017-10-31T08:10:30.865Z,21.3
2017-10-31T08:11:32.001Z,21.2
2017-10-31T08:12:33.822Z,21.3
2017-10-31T08:13:35.282Z,21.4
2017-10-31T08:14:37.158Z,21.3
2017-10-31T08:15:38.955Z,21.4
2017-10-31T08:16:40.772Z,21.3
2017-10-31T08:17:42.938Z,21.3
2017-10-31T08:18:45.109Z,21.3
2017-10-31T08:19:46.908Z,21.3
2017-10-31T08:20:48.360Z,21.3
2017-10-31T08:21:49.131Z,21.3
2017-10-31T08:22:51.310Z,21.4
2017-10-31T08:23:53.137Z,21.3
2017-10-31T08:24:54.621Z,21.4
2017-10-31T08:25:56.411Z,21.4
2017-10-31T08:26:57.895Z,21.4
2017-10-31T08:27:59.349Z,21.3
2017-10-31T08:29:01.146Z,21.4
2017-10-31T08:30:02.601Z,21.4
2017-10-31T08:31:04.419Z,21.3
2017-10-31T08:32:06.585Z,21.4
2017-10-31T08:33:08.407Z,21.3
2017-10-31T08:34:10.572Z,21.4
2017-10-31T08:35:12.371Z,21.4
2017-10-31T08:36:13.479Z,21.3
2017-10-31T08:37:14.957Z,21.4
2017-10-31T08:38:16.410Z,21.4
2017-10-31T08:39:18.204Z,21.4
2017-10-31T08:40:20.370Z,21.5
2017-10-31T08:41:21.845Z,21.4
2017-10-31T08:42:23.303Z,21.4
2017-10-31T08:43:25.134Z,21.4
2017-10-31T08:44:26.595Z,21.4
2017-10-31T08:45:28.776Z,21.4
2017-10-31T08:46:29.907Z,21.4
2017-10-31T08:47:31.702Z,21.4
2017-10-31T08:48:33.868Z,21.4
2017-10-31T08:49:36.029Z,21.4
2017-10-31T08:50:38.192Z,21.4
2017-10-31T08:51:40.357Z,21.4
2017-10-31T08:52:42.529Z,21.5
2017-10-31T08:53:44.348Z,21.4
2017-10-31T08:54:46.168Z,21.5
2017-10-31T08:55:47.644Z,21.4
2017-10-31T08:56:49.106Z,21.5
2017-10-31T08:57:50.921Z,21.4
2017-10-31T08:58:52.725Z,21.5
2017-10-31T08:59:54.205Z,21.4
2017-10-31T09:00:55.663Z,21.5
2017-10-31T09:01:57.826Z,21.5
2017-10-31T09:02:59.643Z,21.4
2017-10-31T09:04:01.472Z,21.4
2017-10-31T09:05:03.285Z,21.4
2017-10-31T09:06:04.757Z,21.4
2017-10-31T09:07:06.208Z,21.4
2017-10-31T09:08:07.662Z,21.5
2017-10-31T09:09:09.466Z,21.5
2017-10-31T09:10:11.288Z,21.5
2017-10-31T09:11:13.095Z,21.5
2017-10-31T09:12:14.560Z,21.5
2017-10-31T09:13:16.027Z,21.4
2017-10-31T09:14:17.136Z,21.5
2017-10-31T09:15:18.956Z,21.5
2017-10-31T09:16:20.757Z,21.6
2017-10-31T09:17:22.572Z,21.6
2017-10-31T09:18:24.392Z,21.5
2017-10-31T09:19:26.213Z,21.5
2017-10-31T09:20:27.668Z,21.5
2017-10-31T09:21:29.830Z,21.5
2017-10-31T09:22:31.289Z,21.5
2017-10-31T09:23:32.399Z,21.5
2017-10-31T09:24:34.562Z,21.6
2017-10-31T09:25:36.362Z,21.6
2017-10-31T09:26:38.188Z,21.6
2017-10-31T09:27:39.321Z,21.5
2017-10-31T09:28:41.123Z,21.5
2017-10-31T09:29:42.574Z,21.6
2017-10-31T09:30:44.735Z,21.6
2017-10-31T09:31:46.209Z,21.5
2017-10-31T09:32:47.682Z,21.6
2017-10-31T09:33:49.156Z,21.6
2017-10-31T09:34:51.320Z,21.5
2017-10-31T09:35:53.482Z,21.6
2017-10-31T09:36:54.936Z,21.6
2017-10-31T09:37:56.388Z,21.5
2017-10-31T09:38:57.847Z,21.6
2017-10-31T09:39:59.295Z,21.5
2017-10-31T09:41:00.799Z,21.6
2017-10-31T09:42:02.630Z,21.6
2017-10-31T09:43:04.798Z,21.6
2017-10-31T09:44:06.255Z,21.6
2017-10-31T09:45:08.433Z,21.6
2017-10-31T09:46:10.605Z,21.6
2017-10-31T09:47:12.770Z,21.5
2017-10-31T09:48:14.934Z,21.6
2017-10-31T09:49:16.763Z,21.6
2017-10-31T09:50:18.607Z,21.6
2017-10-31T09:51:20.777Z,21.6
2017-10-31T09:52:22.225Z,21.6
2017-10-31T09:53:24.388Z,21.6
2017-10-31T09:54:25.501Z,21.5
2017-10-31T09:55:27.324Z,21.6
2017-10-31T09:56:28.781Z,21.5
2017-10-31T09:57:30.601Z,21.6
2017-10-31T09:58:32.077Z,21.6
2017-10-31T09:59:33.551Z,21.5
2017-10-31T10:00:35.369Z,21.6
2017-10-31T10:01:36.525Z,21.6
2017-10-31T10:02:38.320Z,21.7
2017-10-31T10:03:40.490Z,21.6
2017-10-31T10:04:41.946Z,21.6
2017-10-31T10:05:44.121Z,21.6
2017-10-31T10:06:46.296Z,21.6
2017-10-31T10:07:47.761Z,21.6
2017-10-31T10:08:49.238Z,21.6
2017-10-31T10:09:51.039Z,21.6
2017-10-31T10:10:53.205Z,21.6
2017-10-31T10:11:55.035Z,21.7
2017-10-31T10:12:57.201Z,21.5
2017-10-31T10:13:59.020Z,21.6
2017-10-31T10:15:01.234Z,21.6
2017-10-31T10:16:02.691Z,21.6
2017-10-31T10:17:04.510Z,21.6
2017-10-31T10:18:06.311Z,21.6
2017-10-31T10:19:08.138Z,21.5
2017-10-31T10:20:09.948Z,21.6
2017-10-31T10:21:12.124Z,21.5
2017-10-31T10:22:14.287Z,21.6
2017-10-31T10:23:16.107Z,21.6
2017-10-31T10:24:17.931Z,21.6
2017-10-31T10:25:20.096Z,21.6
2017-10-31T10:26:21.549Z,21.6
2017-10-31T10:27:23.711Z,21.5
2017-10-31T10:28:25.530Z,21.6
2017-10-31T10:29:27.347Z,21.6
2017-10-31T10:30:29.146Z,21.7
2017-10-31T10:31:30.949Z,21.6
2017-10-31T10:32:33.110Z,21.7
2017-10-31T10:33:35.304Z,21.7
2017-10-31T10:34:37.131Z,21.7
2017-10-31T10:35:38.263Z,21.7
2017-10-31T10:36:39.742Z,21.7
2017-10-31T10:37:41.221Z,21.7
2017-10-31T10:38:42.335Z,21.7
2017-10-31T10:39:44.150Z,21.7
2017-10-31T10:40:45.977Z,21.7
2017-10-31T10:41:47.427Z,21.7
2017-10-31T10:42:48.907Z,21.7
2017-10-31T10:43:51.068Z,21.7
2017-10-31T10:44:52.530Z,21.7
2017-10-31T10:45:54.334Z,21.7
2017-10-31T10:46:56.493Z,21.7
2017-10-31T10:47:58.655Z,21.7
2017-10-31T10:49:00.459Z,21.7
2017-10-31T10:50:02.257Z,21.7
2017-10-31T10:51:03.731Z,21.7
2017-10-31T10:52:05.550Z,21.7
2017-10-31T10:53:07.372Z,21.7
2017-10-31T10:54:08.828Z,21.7
2017-10-31T10:55:10.625Z,21.7
2017-10-31T10:56:12.793Z,21.8
2017-10-31T10:57:14.591Z,21.7
2017-10-31T10:58:16.756Z,21.7
2017-10-31T10:59:18.577Z,21.7
2017-10-31T11:00:20.040Z,21.7
2017-10-31T11:01:21.863Z,21.7
2017-10-31T11:02:23.317Z,21.6
2017-10-31T11:03:25.134Z,21.8
2017-10-31T11:04:26.957Z,21.7
2017-10-31T11:05:28.433Z,21.8
2017-10-31T11:06:29.886Z,21.7
2017-10-31T11:07:31.708Z,21.7
2017-10-31T11:08:33.541Z,21.7
2017-10-31T11:09:35.331Z,21.7
2017-10-31T11:10:37.131Z,21.7
2017-10-31T11:11:38.587Z,21.7
2017-10-31T11:12:40.419Z,21.7
2017-10-31T11:13:42.245Z,21.7
2017-10-31T11:14:44.063Z,21.7
2017-10-31T11:15:45.884Z,21.7
2017-10-31T11:16:48.047Z,21.7
2017-10-31T11:17:50.210Z,21.7
2017-10-31T11:18:52.035Z,21.7
2017-10-31T11:19:53.847Z,21.7
2017-10-31T11:20:55.634Z,21.7
2017-10-31T11:21:57.470Z,21.7
2017-10-31T11:22:59.627Z,21.7
2017-10-31T11:24:01.426Z,21.7
2017-10-31T11:25:03.591Z,21.7
2017-10-31T11:26:05.068Z,21.7
2017-10-31T11:27:07.230Z,21.7
2017-10-31T11:28:09.394Z,21.7
2017-10-31T11:29:11.558Z,21.7
2017-10-31T11:30:13.736Z,21.7
2017-10-31T11:31:15.896Z,21.7
2017-10-31T11:32:17.035Z,21.7
2017-10-31T11:33:18.837Z,21.7
2017-10-31T11:34:20.657Z,21.7
2017-10-31T11:35:22.133Z,21.7
2017-10-31T11:36:24.301Z,21.7
2017-10-31T11:37:25.760Z,21.7
2017-10-31T11:38:27.923Z,21.7
2017-10-31T11:39:29.745Z,21.7
2017-10-31T11:40:31.207Z,21.7
2017-10-31T11:41:33.365Z,21.7
2017-10-31T11:42:35.526Z,21.8
2017-10-31T11:43:37.347Z,21.8
2017-10-31T11:44:38.802Z,21.8
2017-10-31T11:45:40.969Z,21.8
2017-10-31T11:46:42.422Z,21.8
2017-10-31T11:47:44.220Z,21.9
2017-10-31T11:48:45.696Z,21.8
2017-10-31T11:49:47.149Z,21.8
2017-10-31T11:50:48.976Z,21.9
2017-10-31T11:51:50.794Z,21.9
2017-10-31T11:52:52.968Z,21.9
2017-10-31T11:53:54.416Z,21.8
2017-10-31T11:54:56.213Z,21.9
2017-10-31T11:55:58.032Z,21.8
2017-10-31T11:57:00.195Z,21.9
2017-10-31T11:58:02.016Z,21.8
2017-10-31T11:59:04.193Z,21.8
2017-10-31T12:00:05.990Z,21.9
2017-10-31T12:01:07.806Z,21.8
2017-10-31T12:02:09.632Z,21.9
2017-10-31T12:03:11.793Z,21.8
2017-10-31T12:04:13.275Z,21.9
2017-10-31T12:05:14.043Z,21.8
2017-10-31T12:06:15.864Z,21.9
2017-10-31T12:07:16.978Z,21.8
2017-10-31T12:08:19.146Z,21.8
2017-10-31T12:09:21.316Z,21.9
2017-10-31T12:10:23.131Z,21.8
2017-10-31T12:11:24.955Z,21.8
2017-10-31T12:12:26.066Z,21.8
2017-10-31T12:13:27.545Z,21.9
2017-10-31T12:14:29.710Z,21.9
2017-10-31T12:15:31.530Z,21.9
2017-10-31T12:16:32.986Z,21.8
2017-10-31T12:17:34.806Z,21.9
2017-10-31T12:18:36.625Z,21.9
2017-10-31T12:19:38.104Z,21.8
2017-10-31T12:20:39.208Z,21.8
2017-10-31T12:21:41.008Z,21.8
2017-10-31T12:22:42.806Z,21.9
2017-10-31T12:23:44.628Z,21.9
2017-10-31T12:24:46.792Z,21.9
2017-10-31T12:25:48.615Z,21.9
2017-10-31T12:26:50.432Z,21.9
2017-10-31T12:27:52.617Z,21.8
2017-10-31T12:28:54.415Z,21.8
2017-10-31T12:29:55.888Z,21.9
2017-10-31T12:30:57.675Z,21.9
2017-10-31T12:31:59.499Z,21.9
2017-10-31T12:33:01.663Z,21.8
2017-10-31T12:34:03.463Z,21.8
2017-10-31T12:35:05.285Z,21.9
2017-10-31T12:36:07.106Z,21.8
2017-10-31T12:37:08.926Z,21.8
2017-10-31T12:38:10.403Z,21.8
2017-10-31T12:39:12.214Z,21.9
2017-10-31T12:40:14.374Z,21.8
2017-10-31T12:41:16.540Z,21.9
2017-10-31T12:42:18.703Z,21.9
2017-10-31T12:43:20.191Z,21.9
2017-10-31T12:44:21.300Z,21.9
2017-10-31T12:45:23.460Z,21.8
2017-10-31T12:46:25.285Z,21.9
2017-10-31T12:47:27.080Z,21.9
2017-10-31T12:48:28.554Z,21.8
2017-10-31T12:49:30.714Z,21.8
2017-10-31T12:50:32.881Z,21.9
2017-10-31T12:51:35.049Z,21.9
2017-10-31T12:52:36.847Z,21.8
2017-10-31T12:53:38.653Z,21.9
2017-10-31T12:54:40.102Z,21.9
2017-10-31T12:55:41.900Z,21.9
2017-10-31T12:56:43.727Z,21.8
2017-10-31T12:57:45.208Z,21.9
2017-10-31T12:58:47.367Z,21.8
2017-10-31T12:59:49.168Z,21.9
2017-10-31T13:00:50.993Z,21.9
2017-10-31T13:01:52.443Z,21.8
2017-10-31T13:02:54.262Z,21.9
2017-10-31T13:03:56.084Z,21.9
2017-10-31T13:04:57.911Z,21.8
2017-10-31T13:05:59.727Z,21.9
2017-10-31T13:07:01.600Z,21.8
2017-10-31T13:08:03.764Z,21.9
2017-10-31T13:09:05.588Z,21.9
2017-10-31T13:10:07.409Z,22
2017-10-31T13:11:08.523Z,21.8
2017-10-31T13:12:10.696Z,21.9
2017-10-31T13:13:12.854Z,21.9
2017-10-31T13:14:14.673Z,21.8
2017-10-31T13:15:16.144Z,21.8
2017-10-31T13:16:17.964Z,21.9
2017-10-31T13:17:19.442Z,21.9
2017-10-31T13:18:20.547Z,21.9
2017-10-31T13:19:22.721Z,21.8
2017-10-31T13:20:24.201Z,21.8
2017-10-31T13:21:26.365Z,21.9
2017-10-31T13:22:27.941Z,21.8
2017-10-31T13:23:30.106Z,21.8
2017-10-31T13:24:32.270Z,21.8
2017-10-31T13:25:34.074Z,21.9
2017-10-31T13:26:35.550Z,21.9
2017-10-31T13:27:37.024Z,21.9
2017-10-31T13:28:38.842Z,21.9
2017-10-31T13:29:40.662Z,21.7
2017-10-31T13:30:42.119Z,21.8
2017-10-31T13:31:43.941Z,21.8
2017-10-31T13:32:45.418Z,21.8
2017-10-31T13:33:46.893Z,21.8
2017-10-31T13:34:48.711Z,21.8
2017-10-31T13:35:50.901Z,21.9
2017-10-31T13:36:52.348Z,21.8
2017-10-31T13:37:54.267Z,21.8
2017-10-31T13:38:56.432Z,21.8
2017-10-31T13:39:58.601Z,21.8
2017-10-31T13:41:00.058Z,21.8
2017-10-31T13:42:02.223Z,21.8
2017-10-31T13:43:03.683Z,21.8
2017-10-31T13:44:05.498Z,21.9
2017-10-31T13:45:07.664Z,21.8
2017-10-31T13:46:09.122Z,21.9
2017-10-31T13:47:10.595Z,21.7
2017-10-31T13:48:12.050Z,21.7
2017-10-31T13:49:13.869Z,21.8
2017-10-31T13:50:16.032Z,21.8
2017-10-31T13:51:17.164Z,21.7
2017-10-31T13:52:18.962Z,21.8
2017-10-31T13:53:20.777Z,21.8